sensor_id;sensor_type;location;lat;lon;timestamp;P1;durP1;ratioP1;P2;durP2;ratioP2
63738;SDS011;68816;45.558;10.070;2024-02-21T00:01:21;112.07;;;56.38;;
63738;SDS011;68816;45.558;10.070;2024-02-21T00:03:47;111.13;;;56.70;;
63738;SDS011;68816;45.558;10.070;2024-02-21T00:06:12;113.55;;;58.33;;
63738;SDS011;68816;45.558;10.070;2024-02-21T00:08:38;111.40;;;56.92;;
63738;SDS011;68816;45.558;10.070;2024-02-21T00:11:03;111.43;;;55.00;;
63738;SDS011;68816;45.558;10.070;2024-02-21T00:13:29;108.28;;;53.65;;
63738;SDS011;68816;45.558;10.070;2024-02-21T00:15:55;103.38;;;52.72;;
63738;SDS011;68816;45.558;10.070;2024-02-21T00:18:20;100.88;;;51.33;;
63738;SDS011;68816;45.558;10.070;2024-02-21T00:20:46;98.43;;;50.05;;
63738;SDS011;68816;45.558;10.070;2024-02-21T00:23:11;93.95;;;48.13;;
63738;SDS011;68816;45.558;10.070;2024-02-21T00:25:36;97.95;;;49.15;;
63738;SDS011;68816;45.558;10.070;2024-02-21T00:28:02;88.90;;;46.83;;
63738;SDS011;68816;45.558;10.070;2024-02-21T00:30:28;88.28;;;45.67;;
63738;SDS011;68816;45.558;10.070;2024-02-21T00:32:53;84.38;;;45.15;;
63738;SDS011;68816;45.558;10.070;2024-02-21T00:35:19;87.63;;;44.80;;
63738;SDS011;68816;45.558;10.070;2024-02-21T00:37:44;88.32;;;44.60;;
63738;SDS011;68816;45.558;10.070;2024-02-21T00:40:10;84.13;;;45.03;;
63738;SDS011;68816;45.558;10.070;2024-02-21T00:42:36;80.32;;;43.15;;
63738;SDS011;68816;45.558;10.070;2024-02-21T00:45:01;81.03;;;43.10;;
63738;SDS011;68816;45.558;10.070;2024-02-21T00:47:27;79.30;;;42.85;;
63738;SDS011;68816;45.558;10.070;2024-02-21T00:49:52;77.45;;;42.47;;
63738;SDS011;68816;45.558;10.070;2024-02-21T00:52:18;78.07;;;42.65;;
63738;SDS011;68816;45.558;10.070;2024-02-21T00:54:43;79.28;;;41.50;;
63738;SDS011;68816;45.558;10.070;2024-02-21T00:57:09;78.15;;;40.47;;
63738;SDS011;68816;45.558;10.070;2024-02-21T00:59:34;75.65;;;40.80;;
63738;SDS011;68816;45.558;10.070;2024-02-21T01:02:00;76.47;;;39.78;;
63738;SDS011;68816;45.558;10.070;2024-02-21T01:04:25;77.35;;;40.15;;
63738;SDS011;68816;45.558;10.070;2024-02-21T01:06:51;74.25;;;39.28;;
63738;SDS011;68816;45.558;10.070;2024-02-21T01:09:16;78.35;;;39.65;;
63738;SDS011;68816;45.558;10.070;2024-02-21T01:11:41;74.75;;;38.63;;
63738;SDS011;68816;45.558;10.070;2024-02-21T01:14:07;72.30;;;36.60;;
63738;SDS011;68816;45.558;10.070;2024-02-21T01:16:32;63.75;;;35.53;;
63738;SDS011;68816;45.558;10.070;2024-02-21T01:18:58;66.78;;;35.08;;
63738;SDS011;68816;45.558;10.070;2024-02-21T01:21:23;61.90;;;33.13;;
63738;SDS011;68816;45.558;10.070;2024-02-21T01:23:49;64.22;;;32.38;;
63738;SDS011;68816;45.558;10.070;2024-02-21T01:26:14;62.28;;;32.42;;
63738;SDS011;68816;45.558;10.070;2024-02-21T01:28:41;61.25;;;32.05;;
63738;SDS011;68816;45.558;10.070;2024-02-21T01:31:07;63.97;;;32.70;;
63738;SDS011;68816;45.558;10.070;2024-02-21T01:33:32;63.28;;;33.13;;
63738;SDS011;68816;45.558;10.070;2024-02-21T01:36:03;62.03;;;32.47;;
63738;SDS011;68816;45.558;10.070;2024-02-21T01:38:31;61.33;;;32.20;;
63738;SDS011;68816;45.558;10.070;2024-02-21T01:40:57;61.20;;;30.75;;
63738;SDS011;68816;45.558;10.070;2024-02-21T01:43:23;62.95;;;31.25;;
63738;SDS011;68816;45.558;10.070;2024-02-21T01:45:49;60.97;;;32.67;;
63738;SDS011;68816;45.558;10.070;2024-02-21T01:48:16;63.33;;;33.25;;
63738;SDS011;68816;45.558;10.070;2024-02-21T01:50:43;66.93;;;34.55;;
63738;SDS011;68816;45.558;10.070;2024-02-21T01:53:12;67.38;;;34.13;;
63738;SDS011;68816;45.558;10.070;2024-02-21T01:55:46;68.95;;;35.80;;
63738;SDS011;68816;45.558;10.070;2024-02-21T01:58:15;69.75;;;35.92;;
63738;SDS011;68816;45.558;10.070;2024-02-21T02:00:42;67.70;;;35.30;;
63738;SDS011;68816;45.558;10.070;2024-02-21T02:03:11;68.18;;;34.33;;
63738;SDS011;68816;45.558;10.070;2024-02-21T02:05:47;62.28;;;32.95;;
63738;SDS011;68816;45.558;10.070;2024-02-21T02:08:14;63.58;;;32.83;;
63738;SDS011;68816;45.558;10.070;2024-02-21T02:10:40;63.38;;;33.42;;
63738;SDS011;68816;45.558;10.070;2024-02-21T02:13:06;72.80;;;35.25;;
63738;SDS011;68816;45.558;10.070;2024-02-21T02:15:47;70.18;;;35.40;;
63738;SDS011;68816;45.558;10.070;2024-02-21T02:18:14;72.70;;;37.45;;
63738;SDS011;68816;45.558;10.070;2024-02-21T02:20:40;65.57;;;35.05;;
63738;SDS011;68816;45.558;10.070;2024-02-21T02:25:57;73.25;;;34.13;;
63738;SDS011;68816;45.558;10.070;2024-02-21T02:28:22;67.78;;;35.03;;
63738;SDS011;68816;45.558;10.070;2024-02-21T02:30:48;69.70;;;33.70;;
63738;SDS011;68816;45.558;10.070;2024-02-21T02:33:14;69.40;;;34.08;;
63738;SDS011;68816;45.558;10.070;2024-02-21T02:35:42;68.72;;;34.53;;
63738;SDS011;68816;45.558;10.070;2024-02-21T02:38:07;63.03;;;31.40;;
63738;SDS011;68816;45.558;10.070;2024-02-21T02:40:33;65.15;;;32.95;;
63738;SDS011;68816;45.558;10.070;2024-02-21T02:42:59;62.25;;;31.63;;
63738;SDS011;68816;45.558;10.070;2024-02-21T02:45:25;61.38;;;31.67;;
63738;SDS011;68816;45.558;10.070;2024-02-21T02:47:51;64.43;;;32.22;;
63738;SDS011;68816;45.558;10.070;2024-02-21T02:50:19;62.90;;;30.60;;
63738;SDS011;68816;45.558;10.070;2024-02-21T02:52:45;55.05;;;28.13;;
63738;SDS011;68816;45.558;10.070;2024-02-21T02:55:10;56.42;;;28.70;;
63738;SDS011;68816;45.558;10.070;2024-02-21T02:57:36;51.03;;;25.67;;
63738;SDS011;68816;45.558;10.070;2024-02-21T03:00:01;50.65;;;26.33;;
63738;SDS011;68816;45.558;10.070;2024-02-21T03:02:28;46.83;;;24.50;;
63738;SDS011;68816;45.558;10.070;2024-02-21T03:04:53;44.40;;;21.90;;
63738;SDS011;68816;45.558;10.070;2024-02-21T03:07:19;38.45;;;19.98;;
63738;SDS011;68816;45.558;10.070;2024-02-21T03:09:45;30.50;;;15.60;;
63738;SDS011;68816;45.558;10.070;2024-02-21T03:12:10;28.17;;;14.55;;
63738;SDS011;68816;45.558;10.070;2024-02-21T03:14:36;28.60;;;14.82;;
63738;SDS011;68816;45.558;10.070;2024-02-21T03:17:02;30.00;;;14.38;;
63738;SDS011;68816;45.558;10.070;2024-02-21T03:19:28;23.92;;;13.13;;
63738;SDS011;68816;45.558;10.070;2024-02-21T03:21:54;24.20;;;12.60;;
63738;SDS011;68816;45.558;10.070;2024-02-21T03:24:20;24.50;;;11.73;;
63738;SDS011;68816;45.558;10.070;2024-02-21T03:26:46;22.58;;;11.65;;
63738;SDS011;68816;45.558;10.070;2024-02-21T03:29:16;22.25;;;12.25;;
63738;SDS011;68816;45.558;10.070;2024-02-21T03:31:42;24.90;;;11.15;;
63738;SDS011;68816;45.558;10.070;2024-02-21T03:34:10;20.27;;;11.48;;
63738;SDS011;68816;45.558;10.070;2024-02-21T03:36:36;19.52;;;10.98;;
63738;SDS011;68816;45.558;10.070;2024-02-21T03:39:02;18.25;;;10.75;;
63738;SDS011;68816;45.558;10.070;2024-02-21T03:41:28;18.27;;;10.73;;
63738;SDS011;68816;45.558;10.070;2024-02-21T03:43:54;21.63;;;11.15;;
63738;SDS011;68816;45.558;10.070;2024-02-21T03:46:19;19.95;;;10.43;;
63738;SDS011;68816;45.558;10.070;2024-02-21T03:48:45;18.48;;;10.10;;
63738;SDS011;68816;45.558;10.070;2024-02-21T03:51:11;18.25;;;9.65;;
63738;SDS011;68816;45.558;10.070;2024-02-21T03:53:36;19.70;;;9.88;;
63738;SDS011;68816;45.558;10.070;2024-02-21T03:56:02;16.25;;;8.20;;
63738;SDS011;68816;45.558;10.070;2024-02-21T03:58:29;16.42;;;8.18;;
63738;SDS011;68816;45.558;10.070;2024-02-21T04:00:55;14.95;;;8.35;;
63738;SDS011;68816;45.558;10.070;2024-02-21T04:03:21;13.23;;;7.45;;
63738;SDS011;68816;45.558;10.070;2024-02-21T04:05:46;14.63;;;7.35;;
63738;SDS011;68816;45.558;10.070;2024-02-21T04:08:12;14.50;;;7.30;;
63738;SDS011;68816;45.558;10.070;2024-02-21T04:10:37;13.40;;;6.80;;
63738;SDS011;68816;45.558;10.070;2024-02-21T04:13:03;15.38;;;6.70;;
63738;SDS011;68816;45.558;10.070;2024-02-21T04:15:30;13.88;;;7.35;;
63738;SDS011;68816;45.558;10.070;2024-02-21T04:17:55;11.15;;;6.20;;
63738;SDS011;68816;45.558;10.070;2024-02-21T04:20:21;14.13;;;6.95;;
63738;SDS011;68816;45.558;10.070;2024-02-21T04:22:46;11.10;;;5.80;;
63738;SDS011;68816;45.558;10.070;2024-02-21T04:25:12;16.88;;;6.28;;
63738;SDS011;68816;45.558;10.070;2024-02-21T04:27:40;10.75;;;5.65;;
63738;SDS011;68816;45.558;10.070;2024-02-21T04:30:07;10.10;;;5.40;;
63738;SDS011;68816;45.558;10.070;2024-02-21T04:32:33;11.27;;;5.32;;
63738;SDS011;68816;45.558;10.070;2024-02-21T04:34:58;10.32;;;5.00;;
63738;SDS011;68816;45.558;10.070;2024-02-21T04:37:24;8.93;;;4.95;;
63738;SDS011;68816;45.558;10.070;2024-02-21T04:39:49;11.95;;;4.70;;
63738;SDS011;68816;45.558;10.070;2024-02-21T04:42:16;9.68;;;5.18;;
63738;SDS011;68816;45.558;10.070;2024-02-21T04:44:42;10.32;;;4.97;;
63738;SDS011;68816;45.558;10.070;2024-02-21T04:47:07;9.82;;;5.20;;
63738;SDS011;68816;45.558;10.070;2024-02-21T04:49:33;12.27;;;5.03;;
63738;SDS011;68816;45.558;10.070;2024-02-21T04:51:59;10.98;;;5.65;;
63738;SDS011;68816;45.558;10.070;2024-02-21T04:54:25;11.57;;;5.18;;
63738;SDS011;68816;45.558;10.070;2024-02-21T04:56:50;9.63;;;5.00;;
63738;SDS011;68816;45.558;10.070;2024-02-21T04:59:16;10.27;;;5.57;;
63738;SDS011;68816;45.558;10.070;2024-02-21T05:01:42;9.07;;;4.78;;
63738;SDS011;68816;45.558;10.070;2024-02-21T05:04:07;10.00;;;5.28;;
63738;SDS011;68816;45.558;10.070;2024-02-21T05:06:42;15.73;;;6.28;;
63738;SDS011;68816;45.558;10.070;2024-02-21T05:09:08;11.20;;;6.18;;
63738;SDS011;68816;45.558;10.070;2024-02-21T05:11:34;12.50;;;6.43;;
63738;SDS011;68816;45.558;10.070;2024-02-21T05:14:00;12.82;;;6.30;;
63738;SDS011;68816;45.558;10.070;2024-02-21T05:16:26;12.75;;;6.60;;
63738;SDS011;68816;45.558;10.070;2024-02-21T05:18:51;12.00;;;6.35;;
63738;SDS011;68816;45.558;10.070;2024-02-21T05:21:17;15.57;;;7.63;;
63738;SDS011;68816;45.558;10.070;2024-02-21T05:23:42;19.27;;;10.63;;
63738;SDS011;68816;45.558;10.070;2024-02-21T05:26:08;28.30;;;12.70;;
63738;SDS011;68816;45.558;10.070;2024-02-21T05:28:34;25.15;;;13.10;;
63738;SDS011;68816;45.558;10.070;2024-02-21T05:30:59;27.65;;;13.15;;
63738;SDS011;68816;45.558;10.070;2024-02-21T05:33:25;30.15;;;14.13;;
63738;SDS011;68816;45.558;10.070;2024-02-21T05:35:53;30.25;;;13.95;;
63738;SDS011;68816;45.558;10.070;2024-02-21T05:38:18;31.88;;;15.38;;
63738;SDS011;68816;45.558;10.070;2024-02-21T05:40:47;32.83;;;15.40;;
63738;SDS011;68816;45.558;10.070;2024-02-21T05:43:13;40.85;;;17.63;;
63738;SDS011;68816;45.558;10.070;2024-02-21T05:45:38;33.80;;;16.05;;
63738;SDS011;68816;45.558;10.070;2024-02-21T05:48:04;32.08;;;15.80;;
63738;SDS011;68816;45.558;10.070;2024-02-21T05:50:30;33.35;;;15.13;;
63738;SDS011;68816;45.558;10.070;2024-02-21T05:52:55;35.00;;;13.65;;
63738;SDS011;68816;45.558;10.070;2024-02-21T05:55:21;24.88;;;10.63;;
63738;SDS011;68816;45.558;10.070;2024-02-21T05:57:47;22.65;;;11.43;;
63738;SDS011;68816;45.558;10.070;2024-02-21T06:00:13;22.48;;;11.63;;
63738;SDS011;68816;45.558;10.070;2024-02-21T06:02:39;22.90;;;10.32;;
63738;SDS011;68816;45.558;10.070;2024-02-21T06:05:05;22.40;;;9.73;;
63738;SDS011;68816;45.558;10.070;2024-02-21T06:07:32;18.35;;;9.65;;
63738;SDS011;68816;45.558;10.070;2024-02-21T06:09:59;21.23;;;8.75;;
63738;SDS011;68816;45.558;10.070;2024-02-21T06:12:25;19.48;;;9.10;;
63738;SDS011;68816;45.558;10.070;2024-02-21T06:14:50;22.85;;;9.52;;
63738;SDS011;68816;45.558;10.070;2024-02-21T06:17:16;21.85;;;10.20;;
63738;SDS011;68816;45.558;10.070;2024-02-21T06:19:42;25.27;;;10.57;;
63738;SDS011;68816;45.558;10.070;2024-02-21T06:22:08;18.50;;;8.65;;
63738;SDS011;68816;45.558;10.070;2024-02-21T06:24:37;17.45;;;6.63;;
63738;SDS011;68816;45.558;10.070;2024-02-21T06:27:06;10.27;;;5.30;;
63738;SDS011;68816;45.558;10.070;2024-02-21T06:29:34;11.40;;;5.93;;
63738;SDS011;68816;45.558;10.070;2024-02-21T06:32:00;11.63;;;5.80;;
63738;SDS011;68816;45.558;10.070;2024-02-21T06:34:26;11.35;;;5.30;;
63738;SDS011;68816;45.558;10.070;2024-02-21T06:36:51;15.25;;;5.82;;
63738;SDS011;68816;45.558;10.070;2024-02-21T06:39:17;11.57;;;5.13;;
63738;SDS011;68816;45.558;10.070;2024-02-21T06:41:43;8.02;;;4.45;;
63738;SDS011;68816;45.558;10.070;2024-02-21T06:44:08;11.98;;;4.53;;
63738;SDS011;68816;45.558;10.070;2024-02-21T06:46:34;7.90;;;4.18;;
63738;SDS011;68816;45.558;10.070;2024-02-21T06:49:00;11.40;;;4.43;;
63738;SDS011;68816;45.558;10.070;2024-02-21T06:51:26;12.05;;;4.57;;
63738;SDS011;68816;45.558;10.070;2024-02-21T06:53:55;11.63;;;4.28;;
63738;SDS011;68816;45.558;10.070;2024-02-21T06:56:22;12.63;;;5.20;;
63738;SDS011;68816;45.558;10.070;2024-02-21T06:58:53;11.75;;;5.40;;
63738;SDS011;68816;45.558;10.070;2024-02-21T07:01:22;10.63;;;5.13;;
63738;SDS011;68816;45.558;10.070;2024-02-21T07:03:47;16.92;;;5.50;;
63738;SDS011;68816;45.558;10.070;2024-02-21T07:06:13;23.00;;;7.13;;
63738;SDS011;68816;45.558;10.070;2024-02-21T07:08:38;13.20;;;6.43;;
63738;SDS011;68816;45.558;10.070;2024-02-21T07:11:04;12.27;;;6.53;;
63738;SDS011;68816;45.558;10.070;2024-02-21T07:13:30;14.70;;;6.43;;
63738;SDS011;68816;45.558;10.070;2024-02-21T07:15:55;15.90;;;6.72;;
63738;SDS011;68816;45.558;10.070;2024-02-21T07:18:21;17.25;;;7.28;;
63738;SDS011;68816;45.558;10.070;2024-02-21T07:20:46;26.02;;;7.25;;
63738;SDS011;68816;45.558;10.070;2024-02-21T07:23:12;16.65;;;8.23;;
63738;SDS011;68816;45.558;10.070;2024-02-21T07:25:38;18.42;;;7.97;;
63738;SDS011;68816;45.558;10.070;2024-02-21T07:28:05;18.38;;;8.50;;
63738;SDS011;68816;45.558;10.070;2024-02-21T07:30:30;22.15;;;8.15;;
63738;SDS011;68816;45.558;10.070;2024-02-21T07:32:56;23.63;;;8.38;;
63738;SDS011;68816;45.558;10.070;2024-02-21T07:35:21;22.90;;;7.97;;
63738;SDS011;68816;45.558;10.070;2024-02-21T07:37:47;22.88;;;8.23;;
63738;SDS011;68816;45.558;10.070;2024-02-21T07:40:13;26.60;;;8.38;;
63738;SDS011;68816;45.558;10.070;2024-02-21T07:42:39;17.23;;;7.82;;
63738;SDS011;68816;45.558;10.070;2024-02-21T07:45:05;19.75;;;7.45;;
63738;SDS011;68816;45.558;10.070;2024-02-21T07:47:32;17.30;;;7.65;;
63738;SDS011;68816;45.558;10.070;2024-02-21T07:49:57;21.73;;;7.47;;
63738;SDS011;68816;45.558;10.070;2024-02-21T07:52:23;19.98;;;7.45;;
63738;SDS011;68816;45.558;10.070;2024-02-21T07:54:49;19.88;;;7.65;;
63738;SDS011;68816;45.558;10.070;2024-02-21T07:57:15;17.88;;;9.50;;
63738;SDS011;68816;45.558;10.070;2024-02-21T07:59:40;22.73;;;9.48;;
63738;SDS011;68816;45.558;10.070;2024-02-21T08:02:06;15.77;;;7.50;;
63738;SDS011;68816;45.558;10.070;2024-02-21T08:04:32;12.48;;;6.90;;
63738;SDS011;68816;45.558;10.070;2024-02-21T08:06:58;12.63;;;6.35;;
63738;SDS011;68816;45.558;10.070;2024-02-21T08:09:29;11.60;;;6.10;;
63738;SDS011;68816;45.558;10.070;2024-02-21T08:11:54;12.57;;;6.53;;
63738;SDS011;68816;45.558;10.070;2024-02-21T08:14:20;10.98;;;5.82;;
63738;SDS011;68816;45.558;10.070;2024-02-21T08:16:47;18.05;;;7.05;;
63738;SDS011;68816;45.558;10.070;2024-02-21T08:19:12;19.80;;;7.38;;
63738;SDS011;68816;45.558;10.070;2024-02-21T08:21:38;12.10;;;6.07;;
63738;SDS011;68816;45.558;10.070;2024-02-21T08:24:04;13.35;;;6.00;;
63738;SDS011;68816;45.558;10.070;2024-02-21T08:26:29;19.50;;;7.40;;
63738;SDS011;68816;45.558;10.070;2024-02-21T08:28:56;19.88;;;7.15;;
63738;SDS011;68816;45.558;10.070;2024-02-21T08:31:26;15.20;;;7.05;;
63738;SDS011;68816;45.558;10.070;2024-02-21T08:34:01;10.25;;;5.25;;
63738;SDS011;68816;45.558;10.070;2024-02-21T08:36:30;14.77;;;5.70;;
63738;SDS011;68816;45.558;10.070;2024-02-21T08:38:56;18.60;;;6.38;;
63738;SDS011;68816;45.558;10.070;2024-02-21T08:41:22;10.25;;;4.93;;
63738;SDS011;68816;45.558;10.070;2024-02-21T08:43:50;9.18;;;4.40;;
63738;SDS011;68816;45.558;10.070;2024-02-21T08:46:16;11.63;;;4.70;;
63738;SDS011;68816;45.558;10.070;2024-02-21T08:48:41;10.95;;;4.30;;
63738;SDS011;68816;45.558;10.070;2024-02-21T08:51:08;10.27;;;4.43;;
63738;SDS011;68816;45.558;10.070;2024-02-21T08:53:33;10.57;;;5.38;;
63738;SDS011;68816;45.558;10.070;2024-02-21T08:55:59;10.82;;;5.40;;
63738;SDS011;68816;45.558;10.070;2024-02-21T08:58:24;11.20;;;5.75;;
63738;SDS011;68816;45.558;10.070;2024-02-21T09:00:51;10.27;;;5.82;;
63738;SDS011;68816;45.558;10.070;2024-02-21T09:03:17;12.63;;;5.50;;
63738;SDS011;68816;45.558;10.070;2024-02-21T09:05:45;10.07;;;5.28;;
63738;SDS011;68816;45.558;10.070;2024-02-21T09:08:11;11.73;;;5.53;;
63738;SDS011;68816;45.558;10.070;2024-02-21T09:10:36;10.88;;;5.30;;
63738;SDS011;68816;45.558;10.070;2024-02-21T09:13:02;7.40;;;4.43;;
63738;SDS011;68816;45.558;10.070;2024-02-21T09:15:28;12.50;;;5.32;;
63738;SDS011;68816;45.558;10.070;2024-02-21T09:17:54;11.27;;;5.35;;
63738;SDS011;68816;45.558;10.070;2024-02-21T09:20:19;13.43;;;5.85;;
63738;SDS011;68816;45.558;10.070;2024-02-21T09:22:45;9.43;;;5.40;;
63738;SDS011;68816;45.558;10.070;2024-02-21T09:25:11;8.98;;;4.78;;
63738;SDS011;68816;45.558;10.070;2024-02-21T09:27:37;7.95;;;5.20;;
63738;SDS011;68816;45.558;10.070;2024-02-21T09:30:04;9.75;;;5.05;;
63738;SDS011;68816;45.558;10.070;2024-02-21T09:32:31;11.30;;;5.00;;
63738;SDS011;68816;45.558;10.070;2024-02-21T09:34:58;10.85;;;5.18;;
63738;SDS011;68816;45.558;10.070;2024-02-21T09:37:23;10.77;;;5.10;;
63738;SDS011;68816;45.558;10.070;2024-02-21T09:39:49;14.73;;;6.00;;
63738;SDS011;68816;45.558;10.070;2024-02-21T09:42:16;18.67;;;6.43;;
63738;SDS011;68816;45.558;10.070;2024-02-21T09:44:45;17.45;;;6.65;;
63738;SDS011;68816;45.558;10.070;2024-02-21T09:47:12;9.90;;;5.38;;
63738;SDS011;68816;45.558;10.070;2024-02-21T09:49:42;11.00;;;5.43;;
63738;SDS011;68816;45.558;10.070;2024-02-21T09:52:09;14.88;;;6.03;;
63738;SDS011;68816;45.558;10.070;2024-02-21T09:54:38;12.85;;;6.22;;
63738;SDS011;68816;45.558;10.070;2024-02-21T09:57:05;15.55;;;7.18;;
63738;SDS011;68816;45.558;10.070;2024-02-21T09:59:32;14.50;;;7.90;;
63738;SDS011;68816;45.558;10.070;2024-02-21T10:01:58;17.10;;;8.68;;
63738;SDS011;68816;45.558;10.070;2024-02-21T10:04:27;14.38;;;7.55;;
63738;SDS011;68816;45.558;10.070;2024-02-21T10:06:53;16.17;;;9.00;;
63738;SDS011;68816;45.558;10.070;2024-02-21T10:11:55;21.70;;;11.20;;
63738;SDS011;68816;45.558;10.070;2024-02-21T10:14:21;20.52;;;11.48;;
63738;SDS011;68816;45.558;10.070;2024-02-21T10:16:49;20.08;;;11.05;;
63738;SDS011;68816;45.558;10.070;2024-02-21T10:19:22;22.98;;;10.95;;
63738;SDS011;68816;45.558;10.070;2024-02-21T10:24:51;17.00;;;10.05;;
63738;SDS011;68816;45.558;10.070;2024-02-21T10:27:16;24.15;;;14.27;;
63738;SDS011;68816;45.558;10.070;2024-02-21T10:29:42;21.77;;;12.10;;
63738;SDS011;68816;45.558;10.070;2024-02-21T10:32:08;24.55;;;12.27;;
63738;SDS011;68816;45.558;10.070;2024-02-21T10:34:38;21.17;;;12.23;;
63738;SDS011;68816;45.558;10.070;2024-02-21T10:37:06;23.20;;;12.15;;
63738;SDS011;68816;45.558;10.070;2024-02-21T10:39:33;26.35;;;12.10;;
63738;SDS011;68816;45.558;10.070;2024-02-21T10:42:00;25.92;;;14.38;;
63738;SDS011;68816;45.558;10.070;2024-02-21T10:44:30;26.10;;;15.02;;
63738;SDS011;68816;45.558;10.070;2024-02-21T10:47:05;22.15;;;11.55;;
63738;SDS011;68816;45.558;10.070;2024-02-21T10:49:35;21.17;;;11.10;;
63738;SDS011;68816;45.558;10.070;2024-02-21T10:52:14;19.05;;;10.80;;
63738;SDS011;68816;45.558;10.070;2024-02-21T10:54:53;30.52;;;14.75;;
63738;SDS011;68816;45.558;10.070;2024-02-21T10:57:22;19.30;;;11.52;;
63738;SDS011;68816;45.558;10.070;2024-02-21T10:59:48;23.23;;;11.90;;
63738;SDS011;68816;45.558;10.070;2024-02-21T11:02:15;26.33;;;16.80;;
63738;SDS011;68816;45.558;10.070;2024-02-21T11:04:40;24.52;;;12.20;;
63738;SDS011;68816;45.558;10.070;2024-02-21T11:07:07;23.95;;;11.80;;
63738;SDS011;68816;45.558;10.070;2024-02-21T11:09:33;23.92;;;10.70;;
63738;SDS011;68816;45.558;10.070;2024-02-21T11:12:03;18.65;;;10.77;;
63738;SDS011;68816;45.558;10.070;2024-02-21T11:14:31;19.90;;;11.02;;
63738;SDS011;68816;45.558;10.070;2024-02-21T11:16:58;25.63;;;11.82;;
63738;SDS011;68816;45.558;10.070;2024-02-21T11:19:27;22.83;;;12.70;;
63738;SDS011;68816;45.558;10.070;2024-02-21T11:21:54;25.55;;;14.25;;
63738;SDS011;68816;45.558;10.070;2024-02-21T11:24:30;27.63;;;15.00;;
63738;SDS011;68816;45.558;10.070;2024-02-21T11:27:07;25.13;;;14.95;;
63738;SDS011;68816;45.558;10.070;2024-02-21T11:29:55;31.77;;;16.08;;
63738;SDS011;68816;45.558;10.070;2024-02-21T11:32:21;31.65;;;15.82;;
63738;SDS011;68816;45.558;10.070;2024-02-21T11:34:54;31.15;;;18.20;;
63738;SDS011;68816;45.558;10.070;2024-02-21T11:37:26;31.52;;;16.08;;
63738;SDS011;68816;45.558;10.070;2024-02-21T11:39:53;31.08;;;18.40;;
63738;SDS011;68816;45.558;10.070;2024-02-21T11:42:20;32.97;;;19.20;;
63738;SDS011;68816;45.558;10.070;2024-02-21T11:44:45;31.67;;;19.02;;
63738;SDS011;68816;45.558;10.070;2024-02-21T11:47:11;36.97;;;21.35;;
63738;SDS011;68816;45.558;10.070;2024-02-21T11:49:43;37.78;;;20.90;;
63738;SDS011;68816;45.558;10.070;2024-02-21T11:52:11;46.67;;;27.95;;
63738;SDS011;68816;45.558;10.070;2024-02-21T11:54:37;42.67;;;25.25;;
63738;SDS011;68816;45.558;10.070;2024-02-21T11:57:03;45.95;;;30.25;;
63738;SDS011;68816;45.558;10.070;2024-02-21T11:59:29;46.03;;;29.33;;
63738;SDS011;68816;45.558;10.070;2024-02-21T12:01:57;38.30;;;24.67;;
63738;SDS011;68816;45.558;10.070;2024-02-21T12:04:24;47.45;;;31.90;;
63738;SDS011;68816;45.558;10.070;2024-02-21T12:06:52;36.75;;;23.20;;
63738;SDS011;68816;45.558;10.070;2024-02-21T12:09:19;36.83;;;22.85;;
63738;SDS011;68816;45.558;10.070;2024-02-21T12:11:45;38.38;;;23.27;;
63738;SDS011;68816;45.558;10.070;2024-02-21T12:14:15;34.10;;;19.40;;
63738;SDS011;68816;45.558;10.070;2024-02-21T12:16:41;40.85;;;25.20;;
63738;SDS011;68816;45.558;10.070;2024-02-21T12:19:07;44.38;;;26.10;;
63738;SDS011;68816;45.558;10.070;2024-02-21T12:21:34;46.88;;;27.15;;
63738;SDS011;68816;45.558;10.070;2024-02-21T12:24:13;44.75;;;28.13;;
63738;SDS011;68816;45.558;10.070;2024-02-21T12:26:40;49.70;;;31.23;;
63738;SDS011;68816;45.558;10.070;2024-02-21T12:29:06;52.75;;;32.08;;
63738;SDS011;68816;45.558;10.070;2024-02-21T12:31:34;49.10;;;30.33;;
63738;SDS011;68816;45.558;10.070;2024-02-21T12:34:03;46.35;;;29.27;;
63738;SDS011;68816;45.558;10.070;2024-02-21T12:36:29;45.65;;;28.85;;
63738;SDS011;68816;45.558;10.070;2024-02-21T12:38:55;47.63;;;27.58;;
63738;SDS011;68816;45.558;10.070;2024-02-21T12:41:22;50.88;;;32.05;;
63738;SDS011;68816;45.558;10.070;2024-02-21T12:43:47;53.83;;;34.90;;
63738;SDS011;68816;45.558;10.070;2024-02-21T12:46:13;48.75;;;31.83;;
63738;SDS011;68816;45.558;10.070;2024-02-21T12:48:38;55.45;;;33.75;;
63738;SDS011;68816;45.558;10.070;2024-02-21T12:51:05;53.30;;;34.58;;
63738;SDS011;68816;45.558;10.070;2024-02-21T12:53:30;54.90;;;33.95;;
63738;SDS011;68816;45.558;10.070;2024-02-21T12:55:57;56.97;;;38.25;;
63738;SDS011;68816;45.558;10.070;2024-02-21T12:58:23;57.25;;;36.90;;
63738;SDS011;68816;45.558;10.070;2024-02-21T13:00:48;57.55;;;36.50;;
63738;SDS011;68816;45.558;10.070;2024-02-21T13:03:15;55.33;;;35.53;;
63738;SDS011;68816;45.558;10.070;2024-02-21T13:05:40;49.83;;;32.50;;
63738;SDS011;68816;45.558;10.070;2024-02-21T13:08:06;55.50;;;33.45;;
63738;SDS011;68816;45.558;10.070;2024-02-21T13:10:32;54.50;;;35.42;;
63738;SDS011;68816;45.558;10.070;2024-02-21T13:13:01;52.63;;;31.02;;
63738;SDS011;68816;45.558;10.070;2024-02-21T13:15:26;57.75;;;36.55;;
63738;SDS011;68816;45.558;10.070;2024-02-21T13:17:53;58.00;;;36.20;;
63738;SDS011;68816;45.558;10.070;2024-02-21T13:20:19;53.03;;;32.75;;
63738;SDS011;68816;45.558;10.070;2024-02-21T13:22:45;57.70;;;35.47;;
63738;SDS011;68816;45.558;10.070;2024-02-21T13:25:11;56.65;;;37.08;;
63738;SDS011;68816;45.558;10.070;2024-02-21T13:27:40;55.65;;;36.47;;
63738;SDS011;68816;45.558;10.070;2024-02-21T13:30:06;57.67;;;37.67;;
63738;SDS011;68816;45.558;10.070;2024-02-21T13:32:34;57.45;;;36.08;;
63738;SDS011;68816;45.558;10.070;2024-02-21T13:34:59;57.05;;;37.08;;
63738;SDS011;68816;45.558;10.070;2024-02-21T13:37:26;54.13;;;37.83;;
63738;SDS011;68816;45.558;10.070;2024-02-21T13:39:53;54.53;;;33.80;;
63738;SDS011;68816;45.558;10.070;2024-02-21T13:42:19;59.33;;;39.38;;
63738;SDS011;68816;45.558;10.070;2024-02-21T13:44:45;62.83;;;39.28;;
63738;SDS011;68816;45.558;10.070;2024-02-21T13:47:12;56.05;;;33.78;;
63738;SDS011;68816;45.558;10.070;2024-02-21T13:49:39;55.30;;;36.03;;
63738;SDS011;68816;45.558;10.070;2024-02-21T13:52:05;49.75;;;27.35;;
63738;SDS011;68816;45.558;10.070;2024-02-21T13:54:30;60.92;;;39.17;;
63738;SDS011;68816;45.558;10.070;2024-02-21T13:56:56;60.42;;;36.55;;
63738;SDS011;68816;45.558;10.070;2024-02-21T13:59:21;63.55;;;41.20;;
63738;SDS011;68816;45.558;10.070;2024-02-21T14:01:47;64.50;;;41.28;;
63738;SDS011;68816;45.558;10.070;2024-02-21T14:04:12;63.90;;;42.08;;
63738;SDS011;68816;45.558;10.070;2024-02-21T14:06:38;67.30;;;42.22;;
63738;SDS011;68816;45.558;10.070;2024-02-21T14:09:10;68.13;;;42.95;;
63738;SDS011;68816;45.558;10.070;2024-02-21T14:11:36;65.20;;;42.67;;
63738;SDS011;68816;45.558;10.070;2024-02-21T14:14:03;65.40;;;41.10;;
63738;SDS011;68816;45.558;10.070;2024-02-21T14:16:29;74.45;;;43.25;;
63738;SDS011;68816;45.558;10.070;2024-02-21T14:18:55;66.28;;;42.95;;